Kezdőlap
METAR-TAF:

METAR-TAF

Repülőterek :

Bloomington-Normal, Illinois, Amerikai Egyesült Államok

földrajzi szélesség: 40-29N, földrajzi hosszúság: 088-55W, magasság: 267 m

Jelenlegi meteorológiai megfigyelések

A jelentés 53 perccel ezelõtt készült, 08:56 UTC
Szélcsend
Hőmérséklet 18°C
Páratartalom 94%
Légköri nyomás 1020 hPa
Látótávolság: 16.1 km
Szórványos felhőzet 12000 lábon

METAR: KBMI 210856Z 00000KT 10SM SCT120 18/17 A3013 RMK AO2 SLP198 T01830167 58001

Idő: 04:49 (09:49 UTC)

Előrejelzés

A jelentés 4 órával és 29 perccel ezelõtt készült, 05:20 UTC
Az előrejelzés 21-én 06 óra UTC és 22-én 06 óra UTC között érvényes
Kelet-északkeleti szél 3 kt
Látótávolság: 10 km
Szórványos felhőzet 5000 lábon
Szakadozott felhőzet 15000 lábon

TAF: KBMI 210520Z 2106/2206 06003KT P6SM SCT050 BKN150

Meteorológiai megfigyelések és előrejelzések több, mint 4000 repülőtéren (METAR és TAF jelentéseket).

A térképen piros és sárga pontok jelzik az elérhető meteorológiai állomásokat.

Mozgassa az egeret a pont fölött, hogy megjelenjen az állomás neve.

Azután kattintson az időjárási megfigyelések és előrejelzések megtekintéséhez.

A térkép megváltoztatása: kattintson a fekete keresztel jelölt zöld gombra ráközelítéshez, a vonallal jelölt zöld gombra távolításhoz, vagy a zöld nyilakra a szomszédos térképek eléréséhez.


METAR-TAF: